sensor_id;sensor_type;location;lat;lon;timestamp;pressure;altitude;pressure_sealevel;temperature;humidity
17309;BME280;8772;42.804;23.426;2022-12-22T00:01:53;75375.25;;;-140.58;100.00
17309;BME280;8772;42.804;23.426;2022-12-22T00:04:42;75365.00;;;-140.58;100.00
17309;BME280;8772;42.804;23.426;2022-12-22T00:07:27;75360.91;;;-140.58;100.00
17309;BME280;8772;42.804;23.426;2022-12-22T00:10:11;75360.91;;;-140.58;100.00
17309;BME280;8772;42.804;23.426;2022-12-22T00:12:55;75371.16;;;-140.58;100.00
17309;BME280;8772;42.804;23.426;2022-12-22T00:15:40;75375.25;;;-140.58;100.00
17309;BME280;8772;42.804;23.426;2022-12-22T00:18:25;75393.75;;;-140.58;100.00
17309;BME280;8772;42.804;23.426;2022-12-22T00:21:12;75379.38;;;-140.58;100.00
17309;BME280;8772;42.804;23.426;2022-12-22T00:23:56;75389.63;;;-140.58;100.00
17309;BME280;8772;42.804;23.426;2022-12-22T00:26:41;75393.75;;;-140.58;100.00
17309;BME280;8772;42.804;23.426;2022-12-22T00:29:27;75389.63;;;-140.58;100.00
17309;BME280;8772;42.804;23.426;2022-12-22T00:32:15;75406.06;;;-140.58;100.00
17309;BME280;8772;42.804;23.426;2022-12-22T00:35:00;75393.75;;;-140.58;100.00
17309;BME280;8772;42.804;23.426;2022-12-22T00:37:45;75401.94;;;-140.58;100.00
17309;BME280;8772;42.804;23.426;2022-12-22T00:40:29;75406.06;;;-140.58;100.00
17309;BME280;8772;42.804;23.426;2022-12-22T00:43:14;75406.06;;;-140.58;100.00
17309;BME280;8772;42.804;23.426;2022-12-22T00:46:00;75393.75;;;-140.58;100.00
17309;BME280;8772;42.804;23.426;2022-12-22T00:48:45;75399.91;;;-140.58;100.00
17309;BME280;8772;42.804;23.426;2022-12-22T00:51:30;75397.84;;;-140.58;100.00
17309;BME280;8772;42.804;23.426;2022-12-22T00:54:17;75385.53;;;-140.58;100.00
17309;BME280;8772;42.804;23.426;2022-12-22T00:57:03;75397.84;;;-140.58;100.00
17309;BME280;8772;42.804;23.426;2022-12-22T00:59:48;75422.47;;;-140.58;100.00
17309;BME280;8772;42.804;23.426;2022-12-22T01:02:33;75416.31;;;-140.58;100.00
17309;BME280;8772;42.804;23.426;2022-12-22T01:08:39;75410.16;;;-140.58;100.00
17309;BME280;8772;42.804;23.426;2022-12-22T01:11:25;75410.16;;;-140.58;100.00
17309;BME280;8772;42.804;23.426;2022-12-22T01:14:11;75406.06;;;-140.58;100.00
17309;BME280;8772;42.804;23.426;2022-12-22T01:16:56;75414.25;;;-140.58;100.00
17309;BME280;8772;42.804;23.426;2022-12-22T01:19:40;75410.16;;;-140.58;100.00
17309;BME280;8772;42.804;23.426;2022-12-22T01:22:26;75406.06;;;-140.58;100.00
17309;BME280;8772;42.804;23.426;2022-12-22T01:25:13;75397.84;;;-140.58;100.00
17309;BME280;8772;42.804;23.426;2022-12-22T01:27:59;75406.06;;;-140.58;100.00
17309;BME280;8772;42.804;23.426;2022-12-22T01:30:43;75410.16;;;-140.58;100.00
17309;BME280;8772;42.804;23.426;2022-12-22T01:33:28;75399.91;;;-140.58;100.00
17309;BME280;8772;42.804;23.426;2022-12-22T01:36:12;75393.75;;;-140.58;100.00
17309;BME280;8772;42.804;23.426;2022-12-22T01:38:56;75414.25;;;-140.58;100.00
17309;BME280;8772;42.804;23.426;2022-12-22T01:41:41;75422.47;;;-140.58;100.00
17309;BME280;8772;42.804;23.426;2022-12-22T01:44:27;75438.91;;;-140.58;100.00
17309;BME280;8772;42.804;23.426;2022-12-22T01:47:35;75438.91;;;-140.58;100.00
17309;BME280;8772;42.804;23.426;2022-12-22T01:50:25;75426.56;;;-140.58;100.00
17309;BME280;8772;42.804;23.426;2022-12-22T01:53:15;75418.38;;;-140.58;100.00
17309;BME280;8772;42.804;23.426;2022-12-22T01:56:01;75404.00;;;-140.58;100.00
17309;BME280;8772;42.804;23.426;2022-12-22T01:58:50;75408.09;;;-140.58;100.00
17309;BME280;8772;42.804;23.426;2022-12-22T02:01:37;75418.38;;;-140.58;100.00
17309;BME280;8772;42.804;23.426;2022-12-22T02:04:25;75422.47;;;-140.58;100.00
17309;BME280;8772;42.804;23.426;2022-12-22T02:07:18;75443.00;;;-140.58;100.00
17309;BME280;8772;42.804;23.426;2022-12-22T02:10:21;75434.78;;;-140.58;100.00
17309;BME280;8772;42.804;23.426;2022-12-22T02:13:18;75445.06;;;-140.58;100.00
17309;BME280;8772;42.804;23.426;2022-12-22T02:16:12;75440.94;;;-140.58;100.00
17309;BME280;8772;42.804;23.426;2022-12-22T02:19:06;75447.09;;;-140.58;100.00
17309;BME280;8772;42.804;23.426;2022-12-22T02:21:59;75445.06;;;-140.58;100.00
17309;BME280;8772;42.804;23.426;2022-12-22T02:24:49;75443.00;;;-140.58;100.00
17309;BME280;8772;42.804;23.426;2022-12-22T02:27:39;75438.91;;;-140.58;100.00
17309;BME280;8772;42.804;23.426;2022-12-22T02:30:25;75436.84;;;-140.58;100.00
17309;BME280;8772;42.804;23.426;2022-12-22T02:33:09;75457.38;;;-140.58;100.00
17309;BME280;8772;42.804;23.426;2022-12-22T02:35:59;75445.06;;;-140.58;100.00
17309;BME280;8772;42.804;23.426;2022-12-22T02:38:51;75432.72;;;-140.58;100.00
17309;BME280;8772;42.804;23.426;2022-12-22T02:41:42;75434.78;;;-140.58;100.00
17309;BME280;8772;42.804;23.426;2022-12-22T02:44:39;75428.63;;;-140.58;100.00
17309;BME280;8772;42.804;23.426;2022-12-22T02:47:29;75430.69;;;-140.58;100.00
17309;BME280;8772;42.804;23.426;2022-12-22T02:50:20;75438.91;;;-140.58;100.00
17309;BME280;8772;42.804;23.426;2022-12-22T02:53:07;75418.38;;;-140.58;100.00
17309;BME280;8772;42.804;23.426;2022-12-22T02:55:58;75434.78;;;-140.58;100.00
17309;BME280;8772;42.804;23.426;2022-12-22T02:58:43;75422.47;;;-140.58;100.00
17309;BME280;8772;42.804;23.426;2022-12-22T03:01:29;75418.38;;;-140.58;100.00
17309;BME280;8772;42.804;23.426;2022-12-22T03:04:14;75418.38;;;-140.58;100.00
17309;BME280;8772;42.804;23.426;2022-12-22T03:06:58;75422.47;;;-140.58;100.00
17309;BME280;8772;42.804;23.426;2022-12-22T03:09:42;75426.56;;;-140.58;100.00
17309;BME280;8772;42.804;23.426;2022-12-22T03:12:27;75426.56;;;-140.58;100.00
17309;BME280;8772;42.804;23.426;2022-12-22T03:15:11;75438.91;;;-140.58;100.00
17309;BME280;8772;42.804;23.426;2022-12-22T03:18:01;75428.63;;;-140.58;100.00
17309;BME280;8772;42.804;23.426;2022-12-22T03:20:46;75434.78;;;-140.58;100.00
17309;BME280;8772;42.804;23.426;2022-12-22T03:23:30;75422.47;;;-140.58;100.00
17309;BME280;8772;42.804;23.426;2022-12-22T03:26:14;75426.56;;;-140.58;100.00
17309;BME280;8772;42.804;23.426;2022-12-22T03:28:41;75414.25;;;-140.58;100.00
17309;BME280;8772;42.804;23.426;2022-12-22T03:31:08;75418.38;;;-140.58;100.00
17309;BME280;8772;42.804;23.426;2022-12-22T03:33:36;75416.31;;;-140.58;100.00
17309;BME280;8772;42.804;23.426;2022-12-22T03:36:04;75422.47;;;-140.58;100.00
17309;BME280;8772;42.804;23.426;2022-12-22T03:38:31;75422.47;;;-140.58;100.00
17309;BME280;8772;42.804;23.426;2022-12-22T03:40:58;75410.16;;;-140.58;100.00
17309;BME280;8772;42.804;23.426;2022-12-22T03:43:25;75418.38;;;-140.58;100.00
17309;BME280;8772;42.804;23.426;2022-12-22T03:46:21;75449.16;;;-140.58;100.00
17309;BME280;8772;42.804;23.426;2022-12-22T03:48:59;75451.22;;;-140.58;100.00
17309;BME280;8772;42.804;23.426;2022-12-22T03:51:36;75451.22;;;-140.58;100.00
17309;BME280;8772;42.804;23.426;2022-12-22T03:54:04;75447.09;;;-140.58;100.00
17309;BME280;8772;42.804;23.426;2022-12-22T03:56:31;75455.31;;;-140.58;100.00
17309;BME280;8772;42.804;23.426;2022-12-22T03:58:57;75459.41;;;-140.58;100.00
17309;BME280;8772;42.804;23.426;2022-12-22T04:01:25;75449.16;;;-140.58;100.00
17309;BME280;8772;42.804;23.426;2022-12-22T04:03:51;75449.16;;;-140.58;100.00
17309;BME280;8772;42.804;23.426;2022-12-22T04:06:20;75445.06;;;-140.58;100.00
17309;BME280;8772;42.804;23.426;2022-12-22T04:08:47;75443.00;;;-140.58;100.00
17309;BME280;8772;42.804;23.426;2022-12-22T04:11:14;75463.53;;;-140.58;100.00
17309;BME280;8772;42.804;23.426;2022-12-22T04:13:59;75459.41;;;-140.58;100.00
17309;BME280;8772;42.804;23.426;2022-12-22T04:16:26;75469.69;;;-140.58;100.00
17309;BME280;8772;42.804;23.426;2022-12-22T04:18:54;75461.47;;;-140.58;100.00
17309;BME280;8772;42.804;23.426;2022-12-22T04:21:22;75463.53;;;-140.58;100.00
17309;BME280;8772;42.804;23.426;2022-12-22T04:23:49;75459.41;;;-140.58;100.00
17309;BME280;8772;42.804;23.426;2022-12-22T04:26:16;75461.47;;;-140.58;100.00
17309;BME280;8772;42.804;23.426;2022-12-22T04:28:44;75469.69;;;-140.58;100.00
17309;BME280;8772;42.804;23.426;2022-12-22T04:31:11;75475.84;;;-140.58;100.00
17309;BME280;8772;42.804;23.426;2022-12-22T04:33:38;75463.53;;;-140.58;100.00
17309;BME280;8772;42.804;23.426;2022-12-22T04:36:05;75465.56;;;-140.58;100.00
17309;BME280;8772;42.804;23.426;2022-12-22T04:38:34;75463.53;;;-140.58;100.00
17309;BME280;8772;42.804;23.426;2022-12-22T04:41:01;75484.03;;;-140.58;100.00
17309;BME280;8772;42.804;23.426;2022-12-22T04:43:28;75488.16;;;-140.58;100.00
17309;BME280;8772;42.804;23.426;2022-12-22T04:45:55;75471.72;;;-140.58;100.00
17309;BME280;8772;42.804;23.426;2022-12-22T04:48:24;75484.03;;;-140.58;100.00
17309;BME280;8772;42.804;23.426;2022-12-22T04:50:51;75475.84;;;-140.58;100.00
17309;BME280;8772;42.804;23.426;2022-12-22T04:53:19;75467.63;;;-140.58;100.00
17309;BME280;8772;42.804;23.426;2022-12-22T04:55:49;75467.63;;;-140.58;100.00
17309;BME280;8772;42.804;23.426;2022-12-22T04:58:16;75473.78;;;-140.58;100.00
17309;BME280;8772;42.804;23.426;2022-12-22T05:00:43;75467.63;;;-140.58;100.00
17309;BME280;8772;42.804;23.426;2022-12-22T05:03:10;75453.25;;;-140.58;100.00
17309;BME280;8772;42.804;23.426;2022-12-22T05:05:37;75463.53;;;-140.58;100.00
17309;BME280;8772;42.804;23.426;2022-12-22T05:08:04;75463.53;;;-140.58;100.00
17309;BME280;8772;42.804;23.426;2022-12-22T05:10:31;75457.38;;;-140.58;100.00
17309;BME280;8772;42.804;23.426;2022-12-22T05:12:59;75455.31;;;-140.58;100.00
17309;BME280;8772;42.804;23.426;2022-12-22T05:15:28;75459.41;;;-140.58;100.00
17309;BME280;8772;42.804;23.426;2022-12-22T05:17:56;75455.31;;;-140.58;100.00
17309;BME280;8772;42.804;23.426;2022-12-22T05:20:23;75451.22;;;-140.58;100.00
17309;BME280;8772;42.804;23.426;2022-12-22T05:22:50;75451.22;;;-140.58;100.00
17309;BME280;8772;42.804;23.426;2022-12-22T05:25:18;75451.22;;;-140.58;100.00
17309;BME280;8772;42.804;23.426;2022-12-22T05:27:47;75449.16;;;-140.58;100.00
17309;BME280;8772;42.804;23.426;2022-12-22T05:30:17;75455.31;;;-140.58;100.00
17309;BME280;8772;42.804;23.426;2022-12-22T05:32:44;75459.41;;;-140.58;100.00
17309;BME280;8772;42.804;23.426;2022-12-22T05:35:11;75467.63;;;-140.58;100.00
17309;BME280;8772;42.804;23.426;2022-12-22T05:37:39;75475.84;;;-140.58;100.00
17309;BME280;8772;42.804;23.426;2022-12-22T05:40:09;75475.84;;;-140.58;100.00
17309;BME280;8772;42.804;23.426;2022-12-22T05:42:37;75479.94;;;-140.58;100.00
17309;BME280;8772;42.804;23.426;2022-12-22T05:45:10;75467.63;;;-140.58;100.00
17309;BME280;8772;42.804;23.426;2022-12-22T05:47:40;75467.63;;;-140.58;100.00
17309;BME280;8772;42.804;23.426;2022-12-22T05:50:08;75463.53;;;-140.58;100.00
17309;BME280;8772;42.804;23.426;2022-12-22T05:52:35;75459.41;;;-140.58;100.00
17309;BME280;8772;42.804;23.426;2022-12-22T05:55:03;75463.53;;;-140.58;100.00
17309;BME280;8772;42.804;23.426;2022-12-22T05:57:30;75461.47;;;-140.58;100.00
17309;BME280;8772;42.804;23.426;2022-12-22T05:59:57;75455.31;;;-140.58;100.00
17309;BME280;8772;42.804;23.426;2022-12-22T06:02:24;75459.41;;;-140.58;100.00
17309;BME280;8772;42.804;23.426;2022-12-22T06:04:52;75459.41;;;-140.58;100.00
17309;BME280;8772;42.804;23.426;2022-12-22T06:07:19;75461.47;;;-140.58;100.00
17309;BME280;8772;42.804;23.426;2022-12-22T06:09:46;75451.22;;;-140.58;100.00
17309;BME280;8772;42.804;23.426;2022-12-22T06:12:13;75438.91;;;-140.58;100.00
17309;BME280;8772;42.804;23.426;2022-12-22T06:14:40;75430.69;;;-140.58;100.00
17309;BME280;8772;42.804;23.426;2022-12-22T06:17:06;75430.69;;;-140.58;100.00
17309;BME280;8772;42.804;23.426;2022-12-22T06:19:33;75428.63;;;-140.58;100.00
17309;BME280;8772;42.804;23.426;2022-12-22T06:22:02;75434.78;;;-140.58;100.00
17309;BME280;8772;42.804;23.426;2022-12-22T06:24:28;75434.78;;;-140.58;100.00
17309;BME280;8772;42.804;23.426;2022-12-22T06:26:55;75420.41;;;-140.58;100.00
17309;BME280;8772;42.804;23.426;2022-12-22T06:29:22;75432.72;;;-140.58;100.00
17309;BME280;8772;42.804;23.426;2022-12-22T06:31:49;75422.47;;;-140.58;100.00
17309;BME280;8772;42.804;23.426;2022-12-22T06:34:16;75401.94;;;-140.58;100.00
17309;BME280;8772;42.804;23.426;2022-12-22T06:36:43;75393.75;;;-140.58;100.00
17309;BME280;8772;42.804;23.426;2022-12-22T06:39:12;75383.47;;;-140.58;100.00
17309;BME280;8772;42.804;23.426;2022-12-22T06:41:39;75377.31;;;-140.58;100.00
17309;BME280;8772;42.804;23.426;2022-12-22T06:44:24;75379.38;;;-140.58;100.00
17309;BME280;8772;42.804;23.426;2022-12-22T06:46:54;75383.47;;;-140.58;100.00
17309;BME280;8772;42.804;23.426;2022-12-22T06:49:22;75379.38;;;-140.58;100.00
17309;BME280;8772;42.804;23.426;2022-12-22T06:51:48;75365.00;;;-140.58;100.00
17309;BME280;8772;42.804;23.426;2022-12-22T06:54:17;75365.00;;;-140.58;100.00
17309;BME280;8772;42.804;23.426;2022-12-22T06:56:44;75356.78;;;-140.58;100.00
17309;BME280;8772;42.804;23.426;2022-12-22T06:59:10;75344.47;;;-140.58;100.00
17309;BME280;8772;42.804;23.426;2022-12-22T07:01:37;75338.31;;;-140.58;100.00
17309;BME280;8772;42.804;23.426;2022-12-22T07:04:04;75332.16;;;-140.58;100.00
17309;BME280;8772;42.804;23.426;2022-12-22T07:06:32;75321.91;;;-140.58;100.00
17309;BME280;8772;42.804;23.426;2022-12-22T07:08:59;75315.75;;;-140.58;100.00
17309;BME280;8772;42.804;23.426;2022-12-22T07:11:27;75307.53;;;-140.58;100.00
17309;BME280;8772;42.804;23.426;2022-12-22T07:13:54;75303.44;;;-140.58;100.00
17309;BME280;8772;42.804;23.426;2022-12-22T07:16:21;75299.34;;;-140.58;100.00
17309;BME280;8772;42.804;23.426;2022-12-22T07:18:47;75287.03;;;-140.58;100.00
17309;BME280;8772;42.804;23.426;2022-12-22T07:21:14;75278.81;;;-140.58;100.00
17309;BME280;8772;42.804;23.426;2022-12-22T07:23:41;75278.81;;;-140.58;100.00
17309;BME280;8772;42.804;23.426;2022-12-22T07:26:09;75266.50;;;-140.58;100.00
17309;BME280;8772;42.804;23.426;2022-12-22T07:28:38;75260.34;;;-140.58;100.00
17309;BME280;8772;42.804;23.426;2022-12-22T07:31:06;75252.13;;;-140.58;100.00
17309;BME280;8772;42.804;23.426;2022-12-22T07:33:33;75241.88;;;-140.58;100.00
17309;BME280;8772;42.804;23.426;2022-12-22T07:36:05;75237.75;;;-140.58;100.00
17309;BME280;8772;42.804;23.426;2022-12-22T07:38:35;75225.44;;;-140.58;100.00
17309;BME280;8772;42.804;23.426;2022-12-22T07:41:02;75225.44;;;-140.58;100.00
17309;BME280;8772;42.804;23.426;2022-12-22T07:43:51;75221.34;;;-140.58;100.00
17309;BME280;8772;42.804;23.426;2022-12-22T07:46:17;75219.28;;;-140.58;100.00
17309;BME280;8772;42.804;23.426;2022-12-22T07:48:44;75221.34;;;-140.58;100.00
17309;BME280;8772;42.804;23.426;2022-12-22T07:51:31;75213.13;;;-140.58;100.00
17309;BME280;8772;42.804;23.426;2022-12-22T07:53:58;75215.19;;;-140.58;100.00
17309;BME280;8772;42.804;23.426;2022-12-22T07:56:25;75204.94;;;-140.58;100.00
17309;BME280;8772;42.804;23.426;2022-12-22T07:58:54;75200.81;;;-140.58;100.00
17309;BME280;8772;42.804;23.426;2022-12-22T08:01:21;75196.72;;;-140.58;100.00
17309;BME280;8772;42.804;23.426;2022-12-22T08:03:48;75198.78;;;-140.58;100.00
17309;BME280;8772;42.804;23.426;2022-12-22T08:06:14;75192.63;;;-140.58;100.00
17309;BME280;8772;42.804;23.426;2022-12-22T08:08:41;75188.50;;;-140.58;100.00
17309;BME280;8772;42.804;23.426;2022-12-22T08:11:08;75180.28;;;-140.58;100.00
17309;BME280;8772;42.804;23.426;2022-12-22T08:13:35;75172.09;;;-140.58;100.00
17309;BME280;8772;42.804;23.426;2022-12-22T08:16:04;75167.97;;;-140.58;100.00
17309;BME280;8772;42.804;23.426;2022-12-22T08:18:32;75167.97;;;-140.58;100.00
17309;BME280;8772;42.804;23.426;2022-12-22T08:21:00;75159.78;;;-140.58;100.00
17309;BME280;8772;42.804;23.426;2022-12-22T08:23:28;75153.63;;;-140.58;100.00
17309;BME280;8772;42.804;23.426;2022-12-22T08:25:59;75147.47;;;-140.58;100.00
17309;BME280;8772;42.804;23.426;2022-12-22T08:28:27;75143.34;;;-140.58;100.00
17309;BME280;8772;42.804;23.426;2022-12-22T08:30:55;75131.03;;;-140.58;100.00
17309;BME280;8772;42.804;23.426;2022-12-22T08:33:23;75131.03;;;-140.58;100.00
17309;BME280;8772;42.804;23.426;2022-12-22T08:35:50;75122.84;;;-140.58;100.00
17309;BME280;8772;42.804;23.426;2022-12-22T08:38:17;75112.56;;;-140.58;100.00
17309;BME280;8772;42.804;23.426;2022-12-22T08:40:44;75102.31;;;-140.58;100.00
17309;BME280;8772;42.804;23.426;2022-12-22T08:43:11;75094.09;;;-140.58;100.00
17309;BME280;8772;42.804;23.426;2022-12-22T08:45:38;75092.06;;;-140.58;100.00
17309;BME280;8772;42.804;23.426;2022-12-22T08:48:07;75079.75;;;-140.58;100.00
17309;BME280;8772;42.804;23.426;2022-12-22T08:50:36;75069.47;;;-140.58;100.00
17309;BME280;8772;42.804;23.426;2022-12-22T08:53:04;75065.38;;;-140.58;100.00
17309;BME280;8772;42.804;23.426;2022-12-22T08:55:31;75053.06;;;-140.58;100.00
17309;BME280;8772;42.804;23.426;2022-12-22T08:57:58;75046.91;;;-140.58;100.00
17309;BME280;8772;42.804;23.426;2022-12-22T09:00:25;75036.66;;;-140.58;100.00
17309;BME280;8772;42.804;23.426;2022-12-22T09:02:52;75022.28;;;-140.58;100.00
17309;BME280;8772;42.804;23.426;2022-12-22T09:05:19;75012.00;;;-140.58;100.00
17309;BME280;8772;42.804;23.426;2022-12-22T09:07:47;74995.59;;;-140.58;100.00
17309;BME280;8772;42.804;23.426;2022-12-22T09:10:14;74999.69;;;-140.58;100.00
17309;BME280;8772;42.804;23.426;2022-12-22T09:12:41;74989.44;;;-140.58;100.00
17309;BME280;8772;42.804;23.426;2022-12-22T09:15:08;74975.06;;;-140.58;100.00
17309;BME280;8772;42.804;23.426;2022-12-22T09:17:35;74973.03;;;-140.58;100.00
17309;BME280;8772;42.804;23.426;2022-12-22T09:20:03;74962.75;;;-140.58;100.00
17309;BME280;8772;42.804;23.426;2022-12-22T09:22:30;74948.41;;;-140.58;100.00
17309;BME280;8772;42.804;23.426;2022-12-22T09:24:59;74942.25;;;-140.58;100.00
17309;BME280;8772;42.804;23.426;2022-12-22T09:27:25;74946.34;;;-140.58;100.00
17309;BME280;8772;42.804;23.426;2022-12-22T09:29:52;74929.94;;;-140.58;100.00
17309;BME280;8772;42.804;23.426;2022-12-22T09:32:19;74919.66;;;-140.58;100.00
17309;BME280;8772;42.804;23.426;2022-12-22T09:34:46;74925.81;;;-140.58;100.00
17309;BME280;8772;42.804;23.426;2022-12-22T09:37:13;74915.56;;;-140.58;100.00
17309;BME280;8772;42.804;23.426;2022-12-22T09:39:40;74901.19;;;-140.58;100.00
17309;BME280;8772;42.804;23.426;2022-12-22T09:42:12;74890.94;;;-140.58;100.00
17309;BME280;8772;42.804;23.426;2022-12-22T09:44:43;74888.88;;;-140.58;100.00
17309;BME280;8772;42.804;23.426;2022-12-22T09:47:16;74872.47;;;-140.58;100.00
17309;BME280;8772;42.804;23.426;2022-12-22T09:49:44;74864.25;;;-140.58;100.00
17309;BME280;8772;42.804;23.426;2022-12-22T09:52:23;74839.63;;;-140.58;100.00
17309;BME280;8772;42.804;23.426;2022-12-22T09:54:54;74835.53;;;-140.58;100.00
17309;BME280;8772;42.804;23.426;2022-12-22T09:57:27;74817.06;;;-140.58;100.00
17309;BME280;8772;42.804;23.426;2022-12-22T09:59:55;74810.91;;;-140.58;100.00
17309;BME280;8772;42.804;23.426;2022-12-22T10:02:27;74798.59;;;-140.58;100.00
17309;BME280;8772;42.804;23.426;2022-12-22T10:05:09;74786.28;;;-140.58;100.00
17309;BME280;8772;42.804;23.426;2022-12-22T10:07:40;74778.06;;;-140.58;100.00
17309;BME280;8772;42.804;23.426;2022-12-22T10:10:16;74765.75;;;-140.58;100.00
17309;BME280;8772;42.804;23.426;2022-12-22T10:12:51;74749.34;;;-140.58;100.00
17309;BME280;8772;42.804;23.426;2022-12-22T10:15:18;74741.13;;;-140.58;100.00
17309;BME280;8772;42.804;23.426;2022-12-22T10:17:45;74730.88;;;-140.58;100.00
17309;BME280;8772;42.804;23.426;2022-12-22T10:20:21;74712.41;;;-140.58;100.00
17309;BME280;8772;42.804;23.426;2022-12-22T10:22:51;74716.50;;;-140.58;100.00
17309;BME280;8772;42.804;23.426;2022-12-22T10:25:25;74704.19;;;-140.58;100.00
17309;BME280;8772;42.804;23.426;2022-12-22T10:27:56;74687.78;;;-140.58;100.00
17309;BME280;8772;42.804;23.426;2022-12-22T10:30:25;74679.59;;;-140.58;100.00
17309;BME280;8772;42.804;23.426;2022-12-22T10:33:04;74671.38;;;-140.58;100.00
17309;BME280;8772;42.804;23.426;2022-12-22T10:35:44;74671.38;;;-140.58;100.00
17309;BME280;8772;42.804;23.426;2022-12-22T10:38:13;74667.28;;;-140.58;100.00
17309;BME280;8772;42.804;23.426;2022-12-22T10:40:42;74663.16;;;-140.58;100.00
17309;BME280;8772;42.804;23.426;2022-12-22T10:43:17;74638.53;;;-140.58;100.00
17309;BME280;8772;42.804;23.426;2022-12-22T10:45:46;74622.13;;;-140.58;100.00
17309;BME280;8772;42.804;23.426;2022-12-22T10:48:13;74613.91;;;-140.58;100.00
17309;BME280;8772;42.804;23.426;2022-12-22T10:50:44;74613.91;;;-140.58;100.00
17309;BME280;8772;42.804;23.426;2022-12-22T10:53:12;74605.72;;;-140.58;100.00
17309;BME280;8772;42.804;23.426;2022-12-22T10:55:38;74587.25;;;-140.58;100.00
17309;BME280;8772;42.804;23.426;2022-12-22T10:58:15;74583.13;;;-140.58;100.00
17309;BME280;8772;42.804;23.426;2022-12-22T11:00:43;74572.88;;;-140.58;100.00
17309;BME280;8772;42.804;23.426;2022-12-22T11:03:11;74562.63;;;-140.58;100.00
17309;BME280;8772;42.804;23.426;2022-12-22T11:05:40;74556.47;;;-140.58;100.00
17309;BME280;8772;42.804;23.426;2022-12-22T11:08:14;74538.00;;;-140.58;100.00
17309;BME280;8772;42.804;23.426;2022-12-22T11:10:47;74527.75;;;-140.58;100.00
17309;BME280;8772;42.804;23.426;2022-12-22T11:13:27;74517.47;;;-140.58;100.00
17309;BME280;8772;42.804;23.426;2022-12-22T11:16:02;74496.97;;;-140.58;100.00
17309;BME280;8772;42.804;23.426;2022-12-22T11:18:40;74488.75;;;-140.58;100.00
17309;BME280;8772;42.804;23.426;2022-12-22T11:21:16;74474.38;;;-140.58;100.00
17309;BME280;8772;42.804;23.426;2022-12-22T11:23:52;74466.19;;;-140.58;100.00
17309;BME280;8772;42.804;23.426;2022-12-22T11:26:31;74457.97;;;-140.58;100.00
17309;BME280;8772;42.804;23.426;2022-12-22T11:29:17;74449.78;;;-140.58;100.00
17309;BME280;8772;42.804;23.426;2022-12-22T11:31:55;74425.16;;;-140.58;100.00
17309;BME280;8772;42.804;23.426;2022-12-22T11:34:39;74416.94;;;-140.58;100.00
17309;BME280;8772;42.804;23.426;2022-12-22T11:37:25;74408.72;;;-140.58;100.00
17309;BME280;8772;42.804;23.426;2022-12-22T11:39:57;74392.31;;;-140.58;100.00
17309;BME280;8772;42.804;23.426;2022-12-22T11:42:38;74386.16;;;-140.58;100.00
17309;BME280;8772;42.804;23.426;2022-12-22T11:45:20;74369.75;;;-140.58;100.00
17309;BME280;8772;42.804;23.426;2022-12-22T11:47:58;74365.66;;;-140.58;100.00
17309;BME280;8772;42.804;23.426;2022-12-22T11:50:33;74359.50;;;-140.58;100.00
17309;BME280;8772;42.804;23.426;2022-12-22T11:53:14;74338.97;;;-140.58;100.00
17309;BME280;8772;42.804;23.426;2022-12-22T11:55:51;74328.72;;;-140.58;100.00
17309;BME280;8772;42.804;23.426;2022-12-22T11:58:40;74310.25;;;-140.58;100.00
17309;BME280;8772;42.804;23.426;2022-12-22T12:01:25;74302.03;;;-140.58;100.00
17309;BME280;8772;42.804;23.426;2022-12-22T12:04:29;74277.41;;;-140.58;100.00
17309;BME280;8772;42.804;23.426;2022-12-22T12:07:19;74261.00;;;-140.58;100.00
17309;BME280;8772;42.804;23.426;2022-12-22T12:09:53;74248.69;;;-140.58;100.00
17309;BME280;8772;42.804;23.426;2022-12-22T12:12:29;74224.06;;;-140.58;100.00
17309;BME280;8772;42.804;23.426;2022-12-22T12:15:07;74195.34;;;-140.58;100.00
17309;BME280;8772;42.804;23.426;2022-12-22T12:17:49;74183.03;;;-140.58;100.00
17309;BME280;8772;42.804;23.426;2022-12-22T12:20:28;74174.84;;;-140.58;100.00
17309;BME280;8772;42.804;23.426;2022-12-22T12:23:11;74158.41;;;-140.58;100.00
17309;BME280;8772;42.804;23.426;2022-12-22T12:25:47;74146.09;;;-140.58;100.00
17309;BME280;8772;42.804;23.426;2022-12-22T12:28:23;74125.59;;;-140.58;100.00
17309;BME280;8772;42.804;23.426;2022-12-22T12:30:56;74111.22;;;-140.58;100.00
17309;BME280;8772;42.804;23.426;2022-12-22T12:33:35;74096.88;;;-140.58;100.00
17309;BME280;8772;42.804;23.426;2022-12-22T12:36:10;74082.50;;;-140.58;99.30
17309;BME280;8772;42.804;23.426;2022-12-22T12:38:44;74064.03;;;-140.58;100.00
17309;BME280;8772;42.804;23.426;2022-12-22T12:41:22;74055.84;;;-140.58;100.00
17309;BME280;8772;42.804;23.426;2022-12-22T12:43:51;74031.22;;;-140.58;100.00
17309;BME280;8772;42.804;23.426;2022-12-22T12:46:53;74018.91;;;-140.58;97.97
17309;BME280;8772;42.804;23.426;2022-12-22T12:49:56;73998.41;;;-140.58;96.21
17309;BME280;8772;42.804;23.426;2022-12-22T12:55:24;73979.94;;;-140.58;87.36
17309;BME280;8772;42.804;23.426;2022-12-22T12:57:52;73977.88;;;-140.58;88.23
17309;BME280;8772;42.804;23.426;2022-12-22T13:00:42;73969.69;;;-140.58;88.42
17309;BME280;8772;42.804;23.426;2022-12-22T13:03:11;73965.56;;;-140.58;83.05
17309;BME280;8772;42.804;23.426;2022-12-22T13:06:01;73965.56;;;-140.58;81.42
17309;BME280;8772;42.804;23.426;2022-12-22T13:08:30;73965.56;;;-140.58;80.11
17309;BME280;8772;42.804;23.426;2022-12-22T13:11:30;73963.53;;;-140.58;81.41
17309;BME280;8772;42.804;23.426;2022-12-22T13:13:57;73973.78;;;-140.58;81.11
17309;BME280;8772;42.804;23.426;2022-12-22T13:16:29;73969.69;;;-140.58;81.68